Perrin, TX (76486)

3:10 PM CDT on September 01, 2014 (GMT -0500)
Perrin | Change Station
CLOSE
Current Station
Personal Weather Station
Location: Graford, TX
Elevation: 1063 ft
Nearby Weather Stations

Elev 1063 ft 32.99 °N, 98.13 °W | Updated 4 seconds ago

Clear
Clear
103.6 °F
Feels Like 99 °F
N
0.0
Wind Variable Wind from North
Gusts 0.0 mph

Today
High -- | Low -- °F
--% Chance of Precip.
Yesterday
High -- | Low -- °F
Precip. -- in
7:06 AM 7:57 PM
Waxing Crescent, 43% visible
Pressure 29.88 in
Visibility 10.0 miles
Clouds Scattered Clouds 5500 ft
Heat Index 99 °F
Dew Point 41 °F
Humidity 12%
Rainfall 0.00 in
Snow Depth Not available.
UV 8 out of 12
Pollen 11.20 out of 12
Air Quality Not available.
Flu Activity Not available.
METAR KXBP 011935Z AUTO 17009G16KT 10SM SCT055 35/18 A2988 RMK AO2 T03480175

More Conditions Fewer Conditions

Pressure 29.88 in
Visibility 10.0 miles
Clouds Scattered Clouds 5500 ft
Heat Index 99 °F
Dew Point 41 °F
Humidity 12%
Rainfall 0.00 in
Snow Depth Not available.
UV 8 out of 12
Pollen 11.20 out of 12
Air Quality Not available.
Flu Activity Not available.
METAR KXBP 011935Z AUTO 17009G16KT 10SM SCT055 35/18 A2988 RMK AO2 T03480175

More Conditions Fewer Conditions

10-Day Weather Forecast

Almanac

Astronomy

Sep. 01, 2014 Rise Set
Actual Time 7:06 AM CDT 7:57 PM CDT
Civil Twilight 6:41 AM CDT 8:22 PM CDT
Nautical Twilight 6:11 AM CDT 8:52 PM CDT
Astronomical Twilight 5:40 AM CDT 9:22 PM CDT
Moon 1:32 PM CDT No Moon Set
Length of Visible Light 13h 40m
Length of Day
12h 50m
Tomorrow will be 1m 58s shorter.
Waxing Crescent, 43% of the Moon is Illuminated
Today
Waxing Crescent
Sep 2
First Quarter
Sep 8
Full
Sep 15
Last Quarter
Sep 24
New

Today's Extremes

State Highs State Lows

Community

WunderPhotos

Upload Photos

1,749,394 photos uploaded!

WunderBlogs® & News

Nearby

Snow Depth

Station Depth Elevation
No new snow has been reported.

Earthquake Activity

City Distance Mag. Time & Date
No recent earthquake activity has been reported nearby.
Minimum magnitude displayed is 2.5.

Coastal Water Temperatures

Place Temperature
No Stations Reporting

Nearby Weather Stations